Pacific Beryl — 9V9809 — position and weather

sailwx.info

Track history (hours):
 
Tides and Currents Weather Stations Pressure Air Temp Water Temp Dewpoint Dewpoint Depression Visibility Wind Speed Wind Dir Waves Ship Positions

Pacific Beryl

Last reported at 2016-Jun-26 07:31 UTC. Time now 2016-Jul-02 03:59 UTC.
Position N 29°14' W 094°35'.

Length 182 m; draft 9.5 m.

Type: Tanker. MMSI: 566366000.

Date/timePositionNaut miles runAvg speedWind from/ knotsBaromVisibWave heightAir tempDewpointWater temp
2016-Jun-26 07:31N 29°14' W 094°35'0 0.0
2016-Jun-26 06:21N 29°14' W 094°35'0 0.0
2016-Jun-26 05:33N 29°14' W 094°35'0 0.0
2016-Jun-26 04:27N 29°14' W 094°35'0 0.0
2016-Jun-26 03:27N 29°14' W 094°35'13 6.2
2016-Jun-26 01:21N 29°21' W 094°48'910.9
2016-Jun-26 00:32N 29°30' W 094°52'9 9.3
2016-Jun-25 23:33N 29°37' W 094°57'8 8.2
2016-Jun-25 22:33N 29°44' W 095°03'4 3.6
2016-Jun-25 21:19N 29°44' W 095°08'0 0.0
2016-Jun-24 07:32N 29°44' W 095°08'22 7.2
2016-Jun-24 04:33N 29°28' W 094°51'  
Track history (hours):
 
Tides and Currents Weather Stations Pressure Air Temp Water Temp Dewpoint Dewpoint Depression Visibility Wind Speed Wind Dir Waves Ship Positions

Pacific Beryl

Last reported at 2016-Jun-26 07:31 UTC. Time now 2016-Jul-02 03:59 UTC.
Position N 29°14' W 094°35'.

Length 182 m; draft 9.5 m.

Type: Tanker. MMSI: 566366000.

Date/timePositionNaut miles runAvg speedWind from/ knotsBaromVisibWave heightAir tempDewpointWater temp
2016-Jun-26 07:31N 29°14' W 094°35'0 0.0
2016-Jun-26 06:21N 29°14' W 094°35'0 0.0
2016-Jun-26 05:33N 29°14' W 094°35'0 0.0
2016-Jun-26 04:27N 29°14' W 094°35'0 0.0
2016-Jun-26 03:27N 29°14' W 094°35'13 6.2
2016-Jun-26 01:21N 29°21' W 094°48'910.9
2016-Jun-26 00:32N 29°30' W 094°52'9 9.3
2016-Jun-25 23:33N 29°37' W 094°57'8 8.2
2016-Jun-25 22:33N 29°44' W 095°03'4 3.6
2016-Jun-25 21:19N 29°44' W 095°08'0 0.0
2016-Jun-24 07:32N 29°44' W 095°08'22 7.2
2016-Jun-24 04:33N 29°28' W 094°51'  

Dump ship's entire track history